sensor_id;sensor_type;location;lat;lon;timestamp;pressure;altitude;pressure_sealevel;temperature
64488;BMP280;50864;45.050;39.014;2022-07-10T00:02:00;100025.53;;;23.90
64488;BMP280;50864;45.050;39.014;2022-07-10T00:04:27;100026.31;;;23.90
64488;BMP280;50864;45.050;39.014;2022-07-10T00:06:53;100026.31;;;23.90
64488;BMP280;50864;45.050;39.014;2022-07-10T00:09:21;100014.97;;;23.92
64488;BMP280;50864;45.050;39.014;2022-07-10T00:11:48;100021.59;;;23.94
64488;BMP280;50864;45.050;39.014;2022-07-10T00:14:14;100029.75;;;23.98
64488;BMP280;50864;45.050;39.014;2022-07-10T00:16:40;100023.13;;;23.99
64488;BMP280;50864;45.050;39.014;2022-07-10T00:19:06;100017.66;;;23.99
64488;BMP280;50864;45.050;39.014;2022-07-10T00:21:32;100014.94;;;23.99
64488;BMP280;50864;45.050;39.014;2022-07-10T00:23:58;100019.25;;;24.00
64488;BMP280;50864;45.050;39.014;2022-07-10T00:26:24;100026.28;;;24.01
64488;BMP280;50864;45.050;39.014;2022-07-10T00:28:51;100024.69;;;24.03
64488;BMP280;50864;45.050;39.014;2022-07-10T00:31:17;100024.69;;;24.03
64488;BMP280;50864;45.050;39.014;2022-07-10T00:33:43;100021.56;;;24.05
64488;BMP280;50864;45.050;39.014;2022-07-10T00:36:10;100020.81;;;24.04
64488;BMP280;50864;45.050;39.014;2022-07-10T00:38:35;100016.09;;;24.05
64488;BMP280;50864;45.050;39.014;2022-07-10T00:41:02;100009.09;;;24.04
64488;BMP280;50864;45.050;39.014;2022-07-10T00:43:28;100011.03;;;24.03
64488;BMP280;50864;45.050;39.014;2022-07-10T00:45:54;100010.63;;;24.01
64488;BMP280;50864;45.050;39.014;2022-07-10T00:48:20;100012.59;;;24.01
64488;BMP280;50864;45.050;39.014;2022-07-10T00:50:47;100015.72;;;24.03
64488;BMP280;50864;45.050;39.014;2022-07-10T00:53:13;100020.00;;;24.04
64488;BMP280;50864;45.050;39.014;2022-07-10T00:55:39;100018.81;;;24.05
64488;BMP280;50864;45.050;39.014;2022-07-10T00:58:07;100014.53;;;24.04
64488;BMP280;50864;45.050;39.014;2022-07-10T01:00:35;100009.87;;;24.04
64488;BMP280;50864;45.050;39.014;2022-07-10T01:03:03;100014.53;;;24.04
64488;BMP280;50864;45.050;39.014;2022-07-10T01:05:29;100018.44;;;24.03
64488;BMP280;50864;45.050;39.014;2022-07-10T01:07:55;100015.34;;;24.01
64488;BMP280;50864;45.050;39.014;2022-07-10T01:10:22;100013.78;;;24.00
64488;BMP280;50864;45.050;39.014;2022-07-10T01:12:48;100007.53;;;23.99
64488;BMP280;50864;45.050;39.014;2022-07-10T01:15:14;100014.94;;;23.99
64488;BMP280;50864;45.050;39.014;2022-07-10T01:17:41;100018.06;;;24.01
64488;BMP280;50864;45.050;39.014;2022-07-10T01:20:08;100018.81;;;24.01
64488;BMP280;50864;45.050;39.014;2022-07-10T01:22:38;100016.50;;;24.00
64488;BMP280;50864;45.050;39.014;2022-07-10T01:25:04;100015.72;;;23.99
64488;BMP280;50864;45.050;39.014;2022-07-10T01:27:31;100013.00;;;23.99
64488;BMP280;50864;45.050;39.014;2022-07-10T01:29:58;100023.13;;;23.99
64488;BMP280;50864;45.050;39.014;2022-07-10T01:32:25;100019.63;;;23.98
64488;BMP280;50864;45.050;39.014;2022-07-10T01:34:51;100018.44;;;23.99
64488;BMP280;50864;45.050;39.014;2022-07-10T01:37:17;100005.56;;;24.00
64488;BMP280;50864;45.050;39.014;2022-07-10T01:39:43;100010.25;;;23.96
64488;BMP280;50864;45.050;39.014;2022-07-10T01:42:09;100013.41;;;23.94
64488;BMP280;50864;45.050;39.014;2022-07-10T01:44:35;100014.59;;;23.93
64488;BMP280;50864;45.050;39.014;2022-07-10T01:47:02;100003.69;;;23.90
64488;BMP280;50864;45.050;39.014;2022-07-10T01:49:28;99997.44;;;23.89
64488;BMP280;50864;45.050;39.014;2022-07-10T01:51:54;99997.81;;;23.88
64488;BMP280;50864;45.050;39.014;2022-07-10T01:54:20;99999.75;;;23.87
64488;BMP280;50864;45.050;39.014;2022-07-10T01:56:46;99996.66;;;23.89
64488;BMP280;50864;45.050;39.014;2022-07-10T01:59:12;99994.28;;;23.91
64488;BMP280;50864;45.050;39.014;2022-07-10T02:01:38;99994.28;;;23.91
64488;BMP280;50864;45.050;39.014;2022-07-10T02:04:05;99983.75;;;23.93
64488;BMP280;50864;45.050;39.014;2022-07-10T02:06:49;99993.53;;;23.94
64488;BMP280;50864;45.050;39.014;2022-07-10T02:09:15;99998.16;;;23.97
64488;BMP280;50864;45.050;39.014;2022-07-10T02:11:42;99997.38;;;24.00
64488;BMP280;50864;45.050;39.014;2022-07-10T02:14:08;99993.84;;;24.03
64488;BMP280;50864;45.050;39.014;2022-07-10T02:16:34;99988.00;;;24.04
64488;BMP280;50864;45.050;39.014;2022-07-10T02:19:02;99982.50;;;24.08
64488;BMP280;50864;45.050;39.014;2022-07-10T02:21:28;99987.94;;;24.11
64488;BMP280;50864;45.050;39.014;2022-07-10T02:23:54;99975.44;;;24.14
64488;BMP280;50864;45.050;39.014;2022-07-10T02:26:20;99969.94;;;24.18
64488;BMP280;50864;45.050;39.014;2022-07-10T02:28:46;99969.53;;;24.19
64488;BMP280;50864;45.050;39.014;2022-07-10T02:31:12;99976.56;;;24.20
64488;BMP280;50864;45.050;39.014;2022-07-10T02:33:38;99969.53;;;24.23
64488;BMP280;50864;45.050;39.014;2022-07-10T02:36:05;99967.53;;;24.23
64488;BMP280;50864;45.050;39.014;2022-07-10T02:38:32;99967.94;;;24.25
64488;BMP280;50864;45.050;39.014;2022-07-10T02:40:59;99974.94;;;24.26
64488;BMP280;50864;45.050;39.014;2022-07-10T02:43:25;99980.81;;;24.28
64488;BMP280;50864;45.050;39.014;2022-07-10T02:45:52;99970.25;;;24.30
64488;BMP280;50864;45.050;39.014;2022-07-10T02:48:18;99977.66;;;24.33
64488;BMP280;50864;45.050;39.014;2022-07-10T02:50:44;99985.44;;;24.35
64488;BMP280;50864;45.050;39.014;2022-07-10T02:53:10;99974.88;;;24.37
64488;BMP280;50864;45.050;39.014;2022-07-10T02:55:37;99971.75;;;24.38
64488;BMP280;50864;45.050;39.014;2022-07-10T02:58:03;99974.50;;;24.38
64488;BMP280;50864;45.050;39.014;2022-07-10T03:00:30;99978.37;;;24.41
64488;BMP280;50864;45.050;39.014;2022-07-10T03:02:56;99988.16;;;24.42
64488;BMP280;50864;45.050;39.014;2022-07-10T03:05:23;99972.13;;;24.40
64488;BMP280;50864;45.050;39.014;2022-07-10T03:07:49;99971.34;;;24.43
64488;BMP280;50864;45.050;39.014;2022-07-10T03:10:15;99975.63;;;24.44
64488;BMP280;50864;45.050;39.014;2022-07-10T03:12:41;99969.72;;;24.49
64488;BMP280;50864;45.050;39.014;2022-07-10T03:15:08;99966.56;;;24.54
64488;BMP280;50864;45.050;39.014;2022-07-10T03:17:34;99963.37;;;24.63
64488;BMP280;50864;45.050;39.014;2022-07-10T03:20:00;99969.19;;;24.68
64488;BMP280;50864;45.050;39.014;2022-07-10T03:22:26;99963.28;;;24.73
64488;BMP280;50864;45.050;39.014;2022-07-10T03:24:54;99965.56;;;24.82
64488;BMP280;50864;45.050;39.014;2022-07-10T03:27:20;99962.72;;;24.93
64488;BMP280;50864;45.050;39.014;2022-07-10T03:29:46;99957.16;;;25.00
64488;BMP280;50864;45.050;39.014;2022-07-10T03:32:13;99956.63;;;25.15
64488;BMP280;50864;45.050;39.014;2022-07-10T03:34:39;99958.38;;;25.36
64488;BMP280;50864;45.050;39.014;2022-07-10T03:37:05;99961.44;;;25.72
64488;BMP280;50864;45.050;39.014;2022-07-10T03:39:31;99954.59;;;26.14
64488;BMP280;50864;45.050;39.014;2022-07-10T03:41:57;99959.47;;;26.52
64488;BMP280;50864;45.050;39.014;2022-07-10T03:44:23;99952.44;;;26.94
64488;BMP280;50864;45.050;39.014;2022-07-10T03:46:49;99951.97;;;27.39
64488;BMP280;50864;45.050;39.014;2022-07-10T03:49:15;99949.91;;;27.78
64488;BMP280;50864;45.050;39.014;2022-07-10T03:51:42;99952.53;;;28.18
64488;BMP280;50864;45.050;39.014;2022-07-10T03:54:08;99954.41;;;28.37
64488;BMP280;50864;45.050;39.014;2022-07-10T03:56:34;99949.63;;;28.70
64488;BMP280;50864;45.050;39.014;2022-07-10T03:59:19;99941.06;;;29.09
64488;BMP280;50864;45.050;39.014;2022-07-10T04:01:46;99947.06;;;29.45
64488;BMP280;50864;45.050;39.014;2022-07-10T04:04:12;99957.88;;;29.77
64488;BMP280;50864;45.050;39.014;2022-07-10T04:06:38;99958.09;;;30.08
64488;BMP280;50864;45.050;39.014;2022-07-10T18:35:52;99956.81;;;30.34
64488;BMP280;50864;45.050;39.014;2022-07-10T18:38:19;99956.81;;;30.34
64488;BMP280;50864;45.050;39.014;2022-07-10T18:40:45;99872.78;;;24.54
64488;BMP280;50864;45.050;39.014;2022-07-10T18:43:11;99870.44;;;24.56
64488;BMP280;50864;45.050;39.014;2022-07-10T18:45:37;99866.88;;;24.59
64488;BMP280;50864;45.050;39.014;2022-07-10T18:48:04;99861.75;;;24.64
64488;BMP280;50864;45.050;39.014;2022-07-10T18:50:30;99869.97;;;24.64
64488;BMP280;50864;45.050;39.014;2022-07-10T18:52:57;99884.81;;;24.63
64488;BMP280;50864;45.050;39.014;2022-07-10T18:55:23;99887.16;;;24.61
64488;BMP280;50864;45.050;39.014;2022-07-10T18:57:49;99893.03;;;24.60
64488;BMP280;50864;45.050;39.014;2022-07-10T19:00:16;99879.00;;;24.58
64488;BMP280;50864;45.050;39.014;2022-07-10T19:02:43;99865.69;;;24.60
64488;BMP280;50864;45.050;39.014;2022-07-10T19:05:10;99864.19;;;24.55
64488;BMP280;50864;45.050;39.014;2022-07-10T19:07:36;99865.38;;;24.51
64488;BMP280;50864;45.050;39.014;2022-07-10T19:10:03;99886.09;;;24.48
64488;BMP280;50864;45.050;39.014;2022-07-10T19:12:29;99924.44;;;24.45
64488;BMP280;50864;45.050;39.014;2022-07-10T19:14:56;99942.03;;;24.40
64488;BMP280;50864;45.050;39.014;2022-07-10T19:17:22;99962.37;;;24.39
64488;BMP280;50864;45.050;39.014;2022-07-10T19:19:48;99964.31;;;24.42
64488;BMP280;50864;45.050;39.014;2022-07-10T19:22:14;99934.59;;;24.44
64488;BMP280;50864;45.050;39.014;2022-07-10T19:24:40;99932.25;;;24.46
64488;BMP280;50864;45.050;39.014;2022-07-10T19:27:06;99935.03;;;24.43
64488;BMP280;50864;45.050;39.014;2022-07-10T19:29:33;99925.25;;;24.42
64488;BMP280;50864;45.050;39.014;2022-07-10T19:31:59;99901.41;;;24.42
64488;BMP280;50864;45.050;39.014;2022-07-10T19:34:25;99915.13;;;24.35
64488;BMP280;50864;45.050;39.014;2022-07-10T19:36:51;99911.28;;;24.29
64488;BMP280;50864;45.050;39.014;2022-07-10T19:39:18;99897.25;;;24.24
64488;BMP280;50864;45.050;39.014;2022-07-10T19:41:47;99873.84;;;24.19
64488;BMP280;50864;45.050;39.014;2022-07-10T19:44:13;99883.25;;;24.18
64488;BMP280;50864;45.050;39.014;2022-07-10T19:46:39;99868.38;;;24.19
64488;BMP280;50864;45.050;39.014;2022-07-10T19:49:05;99846.16;;;24.17
64488;BMP280;50864;45.050;39.014;2022-07-10T19:51:32;99843.81;;;24.16
64488;BMP280;50864;45.050;39.014;2022-07-10T19:53:58;99841.84;;;24.16
64488;BMP280;50864;45.050;39.014;2022-07-10T19:56:24;99841.47;;;24.18
64488;BMP280;50864;45.050;39.014;2022-07-10T19:58:50;99830.53;;;24.18
64488;BMP280;50864;45.050;39.014;2022-07-10T20:01:16;99833.63;;;24.20
64488;BMP280;50864;45.050;39.014;2022-07-10T20:03:44;99850.41;;;24.22
64488;BMP280;50864;45.050;39.014;2022-07-10T20:06:10;99875.41;;;24.20
64488;BMP280;50864;45.050;39.014;2022-07-10T20:08:36;99862.94;;;24.16
64488;BMP280;50864;45.050;39.014;2022-07-10T20:11:02;99834.84;;;24.15
64488;BMP280;50864;45.050;39.014;2022-07-10T20:13:29;99859.06;;;24.13
64488;BMP280;50864;45.050;39.014;2022-07-10T20:15:55;99886.81;;;24.11
64488;BMP280;50864;45.050;39.014;2022-07-10T20:18:21;99897.34;;;24.09
64488;BMP280;50864;45.050;39.014;2022-07-10T20:20:47;99880.94;;;24.09
64488;BMP280;50864;45.050;39.014;2022-07-10T20:23:13;99856.75;;;24.08
64488;BMP280;50864;45.050;39.014;2022-07-10T20:25:40;99836.88;;;24.07
64488;BMP280;50864;45.050;39.014;2022-07-10T20:28:06;99848.19;;;24.06
64488;BMP280;50864;45.050;39.014;2022-07-10T20:30:33;99859.13;;;24.06
64488;BMP280;50864;45.050;39.014;2022-07-10T20:32:59;99863.81;;;24.05
64488;BMP280;50864;45.050;39.014;2022-07-10T20:35:26;99847.81;;;24.04
64488;BMP280;50864;45.050;39.014;2022-07-10T20:37:52;99878.66;;;24.04
64488;BMP280;50864;45.050;39.014;2022-07-10T20:40:18;99893.81;;;24.09
64488;BMP280;50864;45.050;39.014;2022-07-10T20:42:45;99911.41;;;24.11
64488;BMP280;50864;45.050;39.014;2022-07-10T20:45:12;99930.94;;;24.10
64488;BMP280;50864;45.050;39.014;2022-07-10T20:47:40;99957.88;;;24.08
64488;BMP280;50864;45.050;39.014;2022-07-10T20:50:07;99988.72;;;24.08
64488;BMP280;50864;45.050;39.014;2022-07-10T20:52:40;100018.03;;;24.08
64488;BMP280;50864;45.050;39.014;2022-07-10T20:55:07;100045.00;;;24.06
64488;BMP280;50864;45.050;39.014;2022-07-10T20:57:33;100068.81;;;24.05
64488;BMP280;50864;45.050;39.014;2022-07-10T20:59:59;100066.47;;;24.04
64488;BMP280;50864;45.050;39.014;2022-07-10T21:02:26;100036.00;;;24.02
64488;BMP280;50864;45.050;39.014;2022-07-10T21:04:52;100035.22;;;24.05
64488;BMP280;50864;45.050;39.014;2022-07-10T21:07:19;100036.78;;;24.06
64488;BMP280;50864;45.050;39.014;2022-07-10T21:09:47;100024.28;;;24.05
64488;BMP280;50864;45.050;39.014;2022-07-10T21:12:15;100023.91;;;24.03
64488;BMP280;50864;45.050;39.014;2022-07-10T21:14:43;100030.53;;;24.02
64488;BMP280;50864;45.050;39.014;2022-07-10T21:17:14;100028.59;;;24.02
64488;BMP280;50864;45.050;39.014;2022-07-10T21:19:41;100012.59;;;24.01
64488;BMP280;50864;45.050;39.014;2022-07-10T21:22:08;100008.69;;;24.02
64488;BMP280;50864;45.050;39.014;2022-07-10T21:24:35;100022.75;;;23.97
64488;BMP280;50864;45.050;39.014;2022-07-10T21:27:01;100058.31;;;23.93
64488;BMP280;50864;45.050;39.014;2022-07-10T21:29:27;100065.75;;;23.89
64488;BMP280;50864;45.050;39.014;2022-07-10T21:31:53;100061.47;;;23.81
64488;BMP280;50864;45.050;39.014;2022-07-10T21:34:19;100059.12;;;23.73
64488;BMP280;50864;45.050;39.014;2022-07-10T21:36:47;100074.78;;;23.65
64488;BMP280;50864;45.050;39.014;2022-07-10T21:39:14;100045.50;;;23.59
64488;BMP280;50864;45.050;39.014;2022-07-10T21:41:42;100013.94;;;23.50
64488;BMP280;50864;45.050;39.014;2022-07-10T21:44:14;99990.91;;;23.48
64488;BMP280;50864;45.050;39.014;2022-07-10T21:46:44;99981.94;;;23.44
64488;BMP280;50864;45.050;39.014;2022-07-10T21:49:10;99983.16;;;23.39
64488;BMP280;50864;45.050;39.014;2022-07-10T21:51:39;99989.38;;;23.36
64488;BMP280;50864;45.050;39.014;2022-07-10T21:54:29;100001.50;;;23.35
64488;BMP280;50864;45.050;39.014;2022-07-10T21:57:00;100011.62;;;23.31
64488;BMP280;50864;45.050;39.014;2022-07-10T21:59:29;100046.34;;;23.27
64488;BMP280;50864;45.050;39.014;2022-07-10T22:01:55;100075.22;;;23.21
64488;BMP280;50864;45.050;39.014;2022-07-10T22:04:29;100074.03;;;23.12
64488;BMP280;50864;45.050;39.014;2022-07-10T22:06:57;100089.62;;;23.08
64488;BMP280;50864;45.050;39.014;2022-07-10T22:09:44;100088.44;;;23.05
64488;BMP280;50864;45.050;39.014;2022-07-10T22:12:16;100075.19;;;23.00
64488;BMP280;50864;45.050;39.014;2022-07-10T22:14:43;100074.41;;;23.00
64488;BMP280;50864;45.050;39.014;2022-07-10T22:17:28;100069.75;;;23.00
64488;BMP280;50864;45.050;39.014;2022-07-10T22:20:04;100069.75;;;23.00
64488;BMP280;50864;45.050;39.014;2022-07-10T22:22:38;100067.78;;;22.97
64488;BMP280;50864;45.050;39.014;2022-07-10T22:25:06;100080.63;;;22.93
64488;BMP280;50864;45.050;39.014;2022-07-10T22:27:33;100083.38;;;22.89
64488;BMP280;50864;45.050;39.014;2022-07-10T22:29:59;100060.38;;;22.87
64488;BMP280;50864;45.050;39.014;2022-07-10T22:32:26;100044.41;;;22.89
64488;BMP280;50864;45.050;39.014;2022-07-10T22:34:53;100045.97;;;22.90
64488;BMP280;50864;45.050;39.014;2022-07-10T22:37:19;100043.22;;;22.90
64488;BMP280;50864;45.050;39.014;2022-07-10T22:39:45;100046.75;;;22.90
64488;BMP280;50864;45.050;39.014;2022-07-10T22:42:12;100037.78;;;22.90
64488;BMP280;50864;45.050;39.014;2022-07-10T22:44:39;100013.22;;;22.90
64488;BMP280;50864;45.050;39.014;2022-07-10T22:47:05;99998.00;;;22.89
64488;BMP280;50864;45.050;39.014;2022-07-10T22:49:31;99972.66;;;22.88
64488;BMP280;50864;45.050;39.014;2022-07-10T22:51:58;99936.44;;;22.88
64488;BMP280;50864;45.050;39.014;2022-07-10T22:54:24;99922.41;;;22.86
64488;BMP280;50864;45.050;39.014;2022-07-10T22:56:50;99933.31;;;22.89
64488;BMP280;50864;45.050;39.014;2022-07-10T22:59:16;99939.91;;;22.92
64488;BMP280;50864;45.050;39.014;2022-07-10T23:01:43;99933.28;;;22.93
64488;BMP280;50864;45.050;39.014;2022-07-10T23:04:09;99929.41;;;22.94
64488;BMP280;50864;45.050;39.014;2022-07-10T23:06:36;99953.97;;;22.94
64488;BMP280;50864;45.050;39.014;2022-07-10T23:09:02;99983.59;;;22.95
64488;BMP280;50864;45.050;39.014;2022-07-10T23:11:29;99985.91;;;22.97
64488;BMP280;50864;45.050;39.014;2022-07-10T23:13:55;99940.69;;;22.96
64488;BMP280;50864;45.050;39.014;2022-07-10T23:16:21;99919.66;;;22.93
64488;BMP280;50864;45.050;39.014;2022-07-10T23:18:48;99907.97;;;22.89
64488;BMP280;50864;45.050;39.014;2022-07-10T23:21:14;99909.91;;;22.92
64488;BMP280;50864;45.050;39.014;2022-07-10T23:23:41;99906.41;;;22.99
64488;BMP280;50864;45.050;39.014;2022-07-10T23:26:07;99898.59;;;23.01
64488;BMP280;50864;45.050;39.014;2022-07-10T23:28:33;99903.28;;;23.00
64488;BMP280;50864;45.050;39.014;2022-07-10T23:30:59;99904.06;;;23.01
64488;BMP280;50864;45.050;39.014;2022-07-10T23:33:26;99892.78;;;23.02
64488;BMP280;50864;45.050;39.014;2022-07-10T23:35:51;99890.03;;;23.02
64488;BMP280;50864;45.050;39.014;2022-07-10T23:38:17;99913.41;;;23.00
64488;BMP280;50864;45.050;39.014;2022-07-10T23:40:44;99920.06;;;22.99
64488;BMP280;50864;45.050;39.014;2022-07-10T23:43:10;99920.06;;;22.99
64488;BMP280;50864;45.050;39.014;2022-07-10T23:45:36;99930.56;;;22.96
64488;BMP280;50864;45.050;39.014;2022-07-10T23:48:03;99938.38;;;22.94
64488;BMP280;50864;45.050;39.014;2022-07-10T23:50:30;99946.59;;;22.91
64488;BMP280;50864;45.050;39.014;2022-07-10T23:52:56;99971.94;;;22.91
64488;BMP280;50864;45.050;39.014;2022-07-10T23:55:22;99973.44;;;22.92
64488;BMP280;50864;45.050;39.014;2022-07-10T23:57:48;99971.94;;;22.91
